DTKA/TBJ METAR and TAF weather

Enter ICAO airport designator
Station Type Date Time Source
DTKA METAR 2020/02/19 11:00 UTC NOAA

DTKA 191100Z 29017KT 9999 SCT020 SCT030 16/09 Q1029 NOSIG


Station Type Date Time Source
DTKA Decoded METAR 2020/02/19 11:00 UTC NOAA

Tabarka, Tunisia (DTKA) 36-57N 008-45E 21M
Feb 19, 2020 - 06:00 AM EST / 2020.02.19 1100 UTC
Wind: from the WNW (290 degrees) at 20 MPH (17 KT):0
Visibility: greater than 7 mile(s):0
Sky conditions: partly cloudy
Temperature: 60 F (16 C)
Dew Point: 48 F (9 C)
Relative Humidity: 63%
Pressure (altimeter): 30.39 in. Hg (1029 hPa)
ob: DTKA 191100Z 29017KT 9999 SCT020 SCT030 16/09 Q1029 NOSIG
cycle: 11

Station Type Date Time Source
DTKA TAF 2018/07/22 13:33 UTC NOAA

TAF TAF DTKA 221200Z 2213/2322 23005KT 9999 FEW020 PROB30
TEMPO 2217/2222 4000 -TSRA FEW026CB

Example: see airport list